Cayuga, North Dakota
Current Conditions -  °F | °C
As of 3:35 PM on Monday 24 Nov 2014 (Local Time) from KGWR Reporting Station
Clear Clear  
Wind Chill:   Ceiling: Unl
Heat Index: 23°   Visibility: 10mi
Dew Point: 12°   Wind: 24mph
Humidity: 63%   Direction: 330°NNW
Pressure: 29.88"   Gusts: 30mph
Location:  46.07°N, 97.38°W
Report Text: KGWR 242135Z AUTO 33021G26KT 10SM CLR M05/M11 A2988 RMK A01 P000
Loading
Personal Weather Stations






























Interactive Weather Map New forecast layout! Learn more

10-Day Weather Forecast

Advertisements
Track Severe Weather on mobile